sensor_id;sensor_type;location;lat;lon;timestamp;temperature;humidity
13794;DHT22;31160;49.500;7.772;2024-01-07T00:00:08;4.40;99.90
13794;DHT22;31160;49.500;7.772;2024-01-07T00:02:35;4.20;99.90
13794;DHT22;31160;49.500;7.772;2024-01-07T00:05:03;4.20;99.90
13794;DHT22;31160;49.500;7.772;2024-01-07T00:07:30;4.30;99.90
13794;DHT22;31160;49.500;7.772;2024-01-07T00:09:56;4.20;99.90
13794;DHT22;31160;49.500;7.772;2024-01-07T00:12:23;4.10;99.90
13794;DHT22;31160;49.500;7.772;2024-01-07T00:14:51;4.00;99.90
13794;DHT22;31160;49.500;7.772;2024-01-07T00:17:18;4.00;99.90
13794;DHT22;31160;49.500;7.772;2024-01-07T00:19:45;4.00;99.90
13794;DHT22;31160;49.500;7.772;2024-01-07T00:22:11;4.00;99.90
13794;DHT22;31160;49.500;7.772;2024-01-07T00:24:38;3.80;99.90
13794;DHT22;31160;49.500;7.772;2024-01-07T00:27:05;3.70;99.90
13794;DHT22;31160;49.500;7.772;2024-01-07T00:29:32;3.80;99.90
13794;DHT22;31160;49.500;7.772;2024-01-07T00:32:01;3.90;99.90
13794;DHT22;31160;49.500;7.772;2024-01-07T00:34:28;3.90;99.90
13794;DHT22;31160;49.500;7.772;2024-01-07T00:36:55;3.80;99.90
13794;DHT22;31160;49.500;7.772;2024-01-07T00:39:23;3.80;99.90
13794;DHT22;31160;49.500;7.772;2024-01-07T00:41:49;3.60;99.90
13794;DHT22;31160;49.500;7.772;2024-01-07T00:44:16;3.70;99.90
13794;DHT22;31160;49.500;7.772;2024-01-07T00:46:43;3.80;99.90
13794;DHT22;31160;49.500;7.772;2024-01-07T00:49:14;3.70;99.90
13794;DHT22;31160;49.500;7.772;2024-01-07T00:51:41;3.70;99.90
13794;DHT22;31160;49.500;7.772;2024-01-07T00:54:08;3.70;99.90
13794;DHT22;31160;49.500;7.772;2024-01-07T00:56:34;3.60;99.90
13794;DHT22;31160;49.500;7.772;2024-01-07T00:59:01;3.50;99.90
13794;DHT22;31160;49.500;7.772;2024-01-07T01:01:28;3.60;99.90
13794;DHT22;31160;49.500;7.772;2024-01-07T01:03:55;3.50;99.90
13794;DHT22;31160;49.500;7.772;2024-01-07T01:06:24;3.50;99.90
13794;DHT22;31160;49.500;7.772;2024-01-07T01:08:51;3.50;99.90
13794;DHT22;31160;49.500;7.772;2024-01-07T01:11:18;3.60;99.90
13794;DHT22;31160;49.500;7.772;2024-01-07T01:13:44;3.60;99.90
13794;DHT22;31160;49.500;7.772;2024-01-07T01:16:11;3.70;99.90
13794;DHT22;31160;49.500;7.772;2024-01-07T01:18:38;3.70;99.90
13794;DHT22;31160;49.500;7.772;2024-01-07T01:21:05;3.60;99.90
13794;DHT22;31160;49.500;7.772;2024-01-07T01:23:31;3.60;99.90
13794;DHT22;31160;49.500;7.772;2024-01-07T01:25:58;3.70;99.90
13794;DHT22;31160;49.500;7.772;2024-01-07T01:28:25;3.80;99.90
13794;DHT22;31160;49.500;7.772;2024-01-07T01:30:52;3.80;99.90
13794;DHT22;31160;49.500;7.772;2024-01-07T01:33:19;3.70;99.90
13794;DHT22;31160;49.500;7.772;2024-01-07T01:35:45;3.80;99.90
13794;DHT22;31160;49.500;7.772;2024-01-07T01:38:12;3.90;99.90
13794;DHT22;31160;49.500;7.772;2024-01-07T01:40:39;3.80;99.90
13794;DHT22;31160;49.500;7.772;2024-01-07T01:43:06;3.70;99.90
13794;DHT22;31160;49.500;7.772;2024-01-07T01:45:33;3.70;99.90
13794;DHT22;31160;49.500;7.772;2024-01-07T01:48:00;3.70;99.90
13794;DHT22;31160;49.500;7.772;2024-01-07T01:50:27;3.60;99.90
13794;DHT22;31160;49.500;7.772;2024-01-07T01:52:55;3.60;99.90
13794;DHT22;31160;49.500;7.772;2024-01-07T01:55:23;3.70;99.90
13794;DHT22;31160;49.500;7.772;2024-01-07T01:57:50;3.70;99.90
13794;DHT22;31160;49.500;7.772;2024-01-07T02:00:18;3.80;99.90
13794;DHT22;31160;49.500;7.772;2024-01-07T02:02:45;3.70;99.90
13794;DHT22;31160;49.500;7.772;2024-01-07T02:05:12;3.70;99.90
13794;DHT22;31160;49.500;7.772;2024-01-07T02:07:41;3.60;99.90
13794;DHT22;31160;49.500;7.772;2024-01-07T02:10:08;3.70;99.90
13794;DHT22;31160;49.500;7.772;2024-01-07T02:12:35;3.70;99.90
13794;DHT22;31160;49.500;7.772;2024-01-07T02:15:02;3.70;99.90
13794;DHT22;31160;49.500;7.772;2024-01-07T02:17:29;3.60;99.90
13794;DHT22;31160;49.500;7.772;2024-01-07T02:19:56;3.60;99.90
13794;DHT22;31160;49.500;7.772;2024-01-07T02:22:23;3.40;99.90
13794;DHT22;31160;49.500;7.772;2024-01-07T02:24:49;3.40;99.90
13794;DHT22;31160;49.500;7.772;2024-01-07T02:27:16;3.30;99.90
13794;DHT22;31160;49.500;7.772;2024-01-07T02:29:43;3.30;99.90
13794;DHT22;31160;49.500;7.772;2024-01-07T02:32:10;3.40;99.90
13794;DHT22;31160;49.500;7.772;2024-01-07T02:34:36;3.40;99.90
13794;DHT22;31160;49.500;7.772;2024-01-07T02:37:03;3.30;99.90
13794;DHT22;31160;49.500;7.772;2024-01-07T02:39:30;3.10;99.90
13794;DHT22;31160;49.500;7.772;2024-01-07T02:41:57;3.10;99.90
13794;DHT22;31160;49.500;7.772;2024-01-07T02:44:24;3.20;99.90
13794;DHT22;31160;49.500;7.772;2024-01-07T02:46:51;3.20;99.90
13794;DHT22;31160;49.500;7.772;2024-01-07T02:49:18;3.20;99.90
13794;DHT22;31160;49.500;7.772;2024-01-07T02:51:45;3.30;99.90
13794;DHT22;31160;49.500;7.772;2024-01-07T02:54:16;3.30;99.90
13794;DHT22;31160;49.500;7.772;2024-01-07T02:56:43;3.20;99.90
13794;DHT22;31160;49.500;7.772;2024-01-07T02:59:10;3.20;99.90
13794;DHT22;31160;49.500;7.772;2024-01-07T03:01:38;3.30;99.90
13794;DHT22;31160;49.500;7.772;2024-01-07T03:04:09;3.30;99.90
13794;DHT22;31160;49.500;7.772;2024-01-07T03:06:36;3.20;99.90
13794;DHT22;31160;49.500;7.772;2024-01-07T03:09:04;3.20;99.90
13794;DHT22;31160;49.500;7.772;2024-01-07T03:11:31;3.30;99.90
13794;DHT22;31160;49.500;7.772;2024-01-07T03:13:58;3.40;99.90
13794;DHT22;31160;49.500;7.772;2024-01-07T03:16:26;3.40;99.90
13794;DHT22;31160;49.500;7.772;2024-01-07T03:18:53;3.30;99.90
13794;DHT22;31160;49.500;7.772;2024-01-07T03:21:22;3.30;99.90
13794;DHT22;31160;49.500;7.772;2024-01-07T03:23:50;3.30;99.90
13794;DHT22;31160;49.500;7.772;2024-01-07T03:26:19;3.30;99.90
13794;DHT22;31160;49.500;7.772;2024-01-07T03:28:46;3.40;99.90
13794;DHT22;31160;49.500;7.772;2024-01-07T03:31:15;3.50;99.90
13794;DHT22;31160;49.500;7.772;2024-01-07T03:33:43;3.50;99.90
13794;DHT22;31160;49.500;7.772;2024-01-07T03:36:13;3.40;99.90
13794;DHT22;31160;49.500;7.772;2024-01-07T03:38:41;3.50;99.90
13794;DHT22;31160;49.500;7.772;2024-01-07T03:41:08;3.60;99.90
13794;DHT22;31160;49.500;7.772;2024-01-07T03:43:35;3.60;99.90
13794;DHT22;31160;49.500;7.772;2024-01-07T03:46:03;3.70;99.90
13794;DHT22;31160;49.500;7.772;2024-01-07T03:48:31;3.60;99.90
13794;DHT22;31160;49.500;7.772;2024-01-07T03:50:58;3.40;99.90
13794;DHT22;31160;49.500;7.772;2024-01-07T03:53:25;3.30;99.90
13794;DHT22;31160;49.500;7.772;2024-01-07T03:55:51;3.30;99.90
13794;DHT22;31160;49.500;7.772;2024-01-07T03:58:18;3.40;99.90
13794;DHT22;31160;49.500;7.772;2024-01-07T04:00:45;3.50;99.90
13794;DHT22;31160;49.500;7.772;2024-01-07T04:03:13;3.50;99.90
13794;DHT22;31160;49.500;7.772;2024-01-07T04:05:41;3.60;99.90
13794;DHT22;31160;49.500;7.772;2024-01-07T04:08:12;3.70;99.90
13794;DHT22;31160;49.500;7.772;2024-01-07T04:10:39;3.60;99.90
13794;DHT22;31160;49.500;7.772;2024-01-07T04:13:07;3.60;99.90
13794;DHT22;31160;49.500;7.772;2024-01-07T04:15:35;3.60;99.90
13794;DHT22;31160;49.500;7.772;2024-01-07T04:18:03;3.70;99.90
13794;DHT22;31160;49.500;7.772;2024-01-07T04:20:32;3.60;99.90
13794;DHT22;31160;49.500;7.772;2024-01-07T04:23:00;3.60;99.90
13794;DHT22;31160;49.500;7.772;2024-01-07T04:25:28;3.50;99.90
13794;DHT22;31160;49.500;7.772;2024-01-07T04:27:55;3.50;99.90
13794;DHT22;31160;49.500;7.772;2024-01-07T04:30:23;3.60;99.90
13794;DHT22;31160;49.500;7.772;2024-01-07T04:32:54;3.50;99.90
13794;DHT22;31160;49.500;7.772;2024-01-07T04:35:22;3.60;99.90
13794;DHT22;31160;49.500;7.772;2024-01-07T04:37:50;3.80;99.90
13794;DHT22;31160;49.500;7.772;2024-01-07T04:40:17;3.80;99.90
13794;DHT22;31160;49.500;7.772;2024-01-07T04:42:45;3.90;99.90
13794;DHT22;31160;49.500;7.772;2024-01-07T04:45:12;3.90;99.90
13794;DHT22;31160;49.500;7.772;2024-01-07T04:47:39;3.80;99.90
13794;DHT22;31160;49.500;7.772;2024-01-07T04:50:08;3.90;99.90
13794;DHT22;31160;49.500;7.772;2024-01-07T04:52:35;3.70;99.90
13794;DHT22;31160;49.500;7.772;2024-01-07T04:55:02;3.80;99.90
13794;DHT22;31160;49.500;7.772;2024-01-07T04:57:30;3.90;99.90
13794;DHT22;31160;49.500;7.772;2024-01-07T04:59:58;3.90;99.90
13794;DHT22;31160;49.500;7.772;2024-01-07T05:02:25;3.90;99.90
13794;DHT22;31160;49.500;7.772;2024-01-07T05:04:52;4.00;99.90
13794;DHT22;31160;49.500;7.772;2024-01-07T05:07:20;3.80;99.90
13794;DHT22;31160;49.500;7.772;2024-01-07T05:09:47;3.70;99.90
13794;DHT22;31160;49.500;7.772;2024-01-07T05:12:14;3.70;99.90
13794;DHT22;31160;49.500;7.772;2024-01-07T05:14:41;3.80;99.90
13794;DHT22;31160;49.500;7.772;2024-01-07T05:17:10;3.70;99.90
13794;DHT22;31160;49.500;7.772;2024-01-07T05:19:40;3.60;99.90
13794;DHT22;31160;49.500;7.772;2024-01-07T05:22:09;3.60;99.90
13794;DHT22;31160;49.500;7.772;2024-01-07T05:24:37;3.60;99.90
13794;DHT22;31160;49.500;7.772;2024-01-07T05:27:09;3.70;99.90
13794;DHT22;31160;49.500;7.772;2024-01-07T05:29:36;3.70;99.90
13794;DHT22;31160;49.500;7.772;2024-01-07T05:32:04;3.60;99.90
13794;DHT22;31160;49.500;7.772;2024-01-07T05:34:32;3.60;99.90
13794;DHT22;31160;49.500;7.772;2024-01-07T05:36:59;3.60;99.90
13794;DHT22;31160;49.500;7.772;2024-01-07T05:39:25;3.40;99.90
13794;DHT22;31160;49.500;7.772;2024-01-07T05:41:52;3.40;99.90
13794;DHT22;31160;49.500;7.772;2024-01-07T05:44:19;3.30;99.90
13794;DHT22;31160;49.500;7.772;2024-01-07T05:46:45;3.30;99.90
13794;DHT22;31160;49.500;7.772;2024-01-07T05:49:12;3.40;99.90
13794;DHT22;31160;49.500;7.772;2024-01-07T05:51:42;3.40;99.90
13794;DHT22;31160;49.500;7.772;2024-01-07T05:54:09;3.50;99.90
13794;DHT22;31160;49.500;7.772;2024-01-07T05:56:39;3.50;99.90
13794;DHT22;31160;49.500;7.772;2024-01-07T05:59:07;3.50;99.90
13794;DHT22;31160;49.500;7.772;2024-01-07T06:01:34;3.60;99.90
13794;DHT22;31160;49.500;7.772;2024-01-07T06:04:01;3.60;99.90
13794;DHT22;31160;49.500;7.772;2024-01-07T06:06:28;3.60;99.90
13794;DHT22;31160;49.500;7.772;2024-01-07T06:08:56;3.70;99.90
13794;DHT22;31160;49.500;7.772;2024-01-07T06:11:22;3.60;99.90
13794;DHT22;31160;49.500;7.772;2024-01-07T06:13:49;3.60;99.90
13794;DHT22;31160;49.500;7.772;2024-01-07T06:16:16;3.60;99.90
13794;DHT22;31160;49.500;7.772;2024-01-07T06:18:42;3.60;99.90
13794;DHT22;31160;49.500;7.772;2024-01-07T06:21:09;3.60;99.90
13794;DHT22;31160;49.500;7.772;2024-01-07T06:23:36;3.50;99.90
13794;DHT22;31160;49.500;7.772;2024-01-07T06:26:03;3.60;99.90
13794;DHT22;31160;49.500;7.772;2024-01-07T06:28:30;3.50;99.90
13794;DHT22;31160;49.500;7.772;2024-01-07T06:30:57;3.70;99.90
13794;DHT22;31160;49.500;7.772;2024-01-07T06:33:26;3.60;99.90
13794;DHT22;31160;49.500;7.772;2024-01-07T06:35:53;3.70;99.90
13794;DHT22;31160;49.500;7.772;2024-01-07T06:38:20;3.80;99.90
13794;DHT22;31160;49.500;7.772;2024-01-07T06:40:46;3.70;99.90
13794;DHT22;31160;49.500;7.772;2024-01-07T06:43:13;3.60;99.90
13794;DHT22;31160;49.500;7.772;2024-01-07T06:45:40;3.50;99.90
13794;DHT22;31160;49.500;7.772;2024-01-07T06:48:07;3.60;99.90
13794;DHT22;31160;49.500;7.772;2024-01-07T06:50:34;3.70;99.90
13794;DHT22;31160;49.500;7.772;2024-01-07T06:53:01;3.60;99.90
13794;DHT22;31160;49.500;7.772;2024-01-07T06:55:28;3.60;99.90
13794;DHT22;31160;49.500;7.772;2024-01-07T06:57:54;3.50;99.90
13794;DHT22;31160;49.500;7.772;2024-01-07T07:00:21;3.40;99.90
13794;DHT22;31160;49.500;7.772;2024-01-07T07:02:48;3.40;99.90
13794;DHT22;31160;49.500;7.772;2024-01-07T07:05:15;3.50;99.90
13794;DHT22;31160;49.500;7.772;2024-01-07T07:07:42;3.50;99.90
13794;DHT22;31160;49.500;7.772;2024-01-07T07:10:09;3.50;99.90
13794;DHT22;31160;49.500;7.772;2024-01-07T07:12:36;3.60;99.90
13794;DHT22;31160;49.500;7.772;2024-01-07T07:15:03;3.60;99.90
13794;DHT22;31160;49.500;7.772;2024-01-07T07:17:29;3.60;99.90
13794;DHT22;31160;49.500;7.772;2024-01-07T07:19:56;3.60;99.90
13794;DHT22;31160;49.500;7.772;2024-01-07T07:22:23;3.30;99.90
13794;DHT22;31160;49.500;7.772;2024-01-07T07:24:50;3.40;99.90
13794;DHT22;31160;49.500;7.772;2024-01-07T07:27:17;3.50;99.90
13794;DHT22;31160;49.500;7.772;2024-01-07T07:29:44;3.40;99.90
13794;DHT22;31160;49.500;7.772;2024-01-07T07:32:10;3.40;99.90
13794;DHT22;31160;49.500;7.772;2024-01-07T07:34:37;3.50;99.90
13794;DHT22;31160;49.500;7.772;2024-01-07T07:37:04;3.40;99.90
13794;DHT22;31160;49.500;7.772;2024-01-07T07:39:31;3.30;99.90
13794;DHT22;31160;49.500;7.772;2024-01-07T07:41:58;3.20;99.90
13794;DHT22;31160;49.500;7.772;2024-01-07T07:44:26;3.10;99.90
13794;DHT22;31160;49.500;7.772;2024-01-07T07:46:53;3.20;99.90
13794;DHT22;31160;49.500;7.772;2024-01-07T07:49:19;3.20;99.90
13794;DHT22;31160;49.500;7.772;2024-01-07T07:51:46;3.20;99.90
13794;DHT22;31160;49.500;7.772;2024-01-07T07:54:13;3.10;99.90
13794;DHT22;31160;49.500;7.772;2024-01-07T07:56:40;3.20;99.90
13794;DHT22;31160;49.500;7.772;2024-01-07T07:59:06;3.20;99.90
13794;DHT22;31160;49.500;7.772;2024-01-07T08:01:35;3.00;99.90
13794;DHT22;31160;49.500;7.772;2024-01-07T08:04:02;3.10;99.90
13794;DHT22;31160;49.500;7.772;2024-01-07T08:06:29;3.20;99.90
13794;DHT22;31160;49.500;7.772;2024-01-07T08:08:56;3.30;99.90
13794;DHT22;31160;49.500;7.772;2024-01-07T08:11:23;3.10;99.90
13794;DHT22;31160;49.500;7.772;2024-01-07T08:13:49;3.20;99.90
13794;DHT22;31160;49.500;7.772;2024-01-07T08:16:16;3.20;99.90
13794;DHT22;31160;49.500;7.772;2024-01-07T08:18:43;3.20;99.90
13794;DHT22;31160;49.500;7.772;2024-01-07T08:21:10;3.20;99.90
13794;DHT22;31160;49.500;7.772;2024-01-07T08:23:37;3.20;99.90
13794;DHT22;31160;49.500;7.772;2024-01-07T08:26:03;3.30;99.90
13794;DHT22;31160;49.500;7.772;2024-01-07T08:28:31;3.20;99.90
13794;DHT22;31160;49.500;7.772;2024-01-07T08:30:58;3.20;99.90
13794;DHT22;31160;49.500;7.772;2024-01-07T08:33:25;3.20;99.90
13794;DHT22;31160;49.500;7.772;2024-01-07T08:35:52;3.20;99.90
13794;DHT22;31160;49.500;7.772;2024-01-07T08:38:19;3.20;99.90
13794;DHT22;31160;49.500;7.772;2024-01-07T08:40:45;3.20;99.90
13794;DHT22;31160;49.500;7.772;2024-01-07T08:43:12;3.40;99.90
13794;DHT22;31160;49.500;7.772;2024-01-07T08:45:39;3.40;99.90
13794;DHT22;31160;49.500;7.772;2024-01-07T08:48:06;3.40;99.90
13794;DHT22;31160;49.500;7.772;2024-01-07T08:50:33;3.40;99.90
13794;DHT22;31160;49.500;7.772;2024-01-07T08:53:00;3.40;99.90
13794;DHT22;31160;49.500;7.772;2024-01-07T08:55:31;3.40;99.90
13794;DHT22;31160;49.500;7.772;2024-01-07T08:57:59;3.40;99.90
13794;DHT22;31160;49.500;7.772;2024-01-07T09:00:25;3.40;99.90
13794;DHT22;31160;49.500;7.772;2024-01-07T09:02:53;3.60;99.90
13794;DHT22;31160;49.500;7.772;2024-01-07T09:05:20;3.40;99.90
13794;DHT22;31160;49.500;7.772;2024-01-07T09:07:47;3.40;99.90
13794;DHT22;31160;49.500;7.772;2024-01-07T09:10:13;3.40;99.90
13794;DHT22;31160;49.500;7.772;2024-01-07T09:12:40;3.30;99.90
13794;DHT22;31160;49.500;7.772;2024-01-07T09:15:07;3.40;99.90
13794;DHT22;31160;49.500;7.772;2024-01-07T09:17:38;3.50;99.90
13794;DHT22;31160;49.500;7.772;2024-01-07T09:20:05;3.60;99.90
13794;DHT22;31160;49.500;7.772;2024-01-07T09:22:34;3.80;99.90
13794;DHT22;31160;49.500;7.772;2024-01-07T09:25:03;3.60;99.90
13794;DHT22;31160;49.500;7.772;2024-01-07T09:27:30;3.60;99.90
13794;DHT22;31160;49.500;7.772;2024-01-07T09:29:57;3.70;99.90
13794;DHT22;31160;49.500;7.772;2024-01-07T09:32:24;3.90;99.90
13794;DHT22;31160;49.500;7.772;2024-01-07T09:34:51;3.90;99.90
13794;DHT22;31160;49.500;7.772;2024-01-07T09:37:18;3.80;99.90
13794;DHT22;31160;49.500;7.772;2024-01-07T09:39:45;3.70;99.90
13794;DHT22;31160;49.500;7.772;2024-01-07T09:42:13;3.70;99.90
13794;DHT22;31160;49.500;7.772;2024-01-07T09:44:41;3.70;99.90
13794;DHT22;31160;49.500;7.772;2024-01-07T09:47:11;3.40;99.90
13794;DHT22;31160;49.500;7.772;2024-01-07T09:49:42;3.40;99.90
13794;DHT22;31160;49.500;7.772;2024-01-07T09:52:10;3.50;99.90
13794;DHT22;31160;49.500;7.772;2024-01-07T09:54:38;3.50;99.90
13794;DHT22;31160;49.500;7.772;2024-01-07T09:57:06;3.50;99.90
13794;DHT22;31160;49.500;7.772;2024-01-07T09:59:36;3.50;99.90
13794;DHT22;31160;49.500;7.772;2024-01-07T10:02:03;3.60;99.90
13794;DHT22;31160;49.500;7.772;2024-01-07T10:04:31;3.60;99.90
13794;DHT22;31160;49.500;7.772;2024-01-07T10:06:58;3.70;99.90
13794;DHT22;31160;49.500;7.772;2024-01-07T10:09:30;3.50;99.90
13794;DHT22;31160;49.500;7.772;2024-01-07T10:11:57;3.70;99.90
13794;DHT22;31160;49.500;7.772;2024-01-07T10:14:24;3.60;99.90
13794;DHT22;31160;49.500;7.772;2024-01-07T10:16:56;3.70;99.90
13794;DHT22;31160;49.500;7.772;2024-01-07T10:19:25;3.60;99.90
13794;DHT22;31160;49.500;7.772;2024-01-07T10:22:03;3.70;99.90
13794;DHT22;31160;49.500;7.772;2024-01-07T10:24:38;3.60;99.90
13794;DHT22;31160;49.500;7.772;2024-01-07T10:27:06;3.60;99.90
13794;DHT22;31160;49.500;7.772;2024-01-07T10:29:33;3.60;99.90
13794;DHT22;31160;49.500;7.772;2024-01-07T10:32:01;3.60;99.90
13794;DHT22;31160;49.500;7.772;2024-01-07T10:34:33;3.60;99.90
13794;DHT22;31160;49.500;7.772;2024-01-07T10:37:01;3.70;99.90
13794;DHT22;31160;49.500;7.772;2024-01-07T10:39:29;3.50;99.90
13794;DHT22;31160;49.500;7.772;2024-01-07T10:41:57;3.30;99.90
13794;DHT22;31160;49.500;7.772;2024-01-07T10:44:32;3.40;99.90
13794;DHT22;31160;49.500;7.772;2024-01-07T10:47:00;3.40;99.90
13794;DHT22;31160;49.500;7.772;2024-01-07T10:49:29;3.40;99.90
13794;DHT22;31160;49.500;7.772;2024-01-07T10:52:07;3.50;99.90
13794;DHT22;31160;49.500;7.772;2024-01-07T10:54:36;3.60;99.90
13794;DHT22;31160;49.500;7.772;2024-01-07T10:57:12;3.70;99.90
13794;DHT22;31160;49.500;7.772;2024-01-07T10:59:40;3.90;99.90
13794;DHT22;31160;49.500;7.772;2024-01-07T11:02:08;3.60;99.90
13794;DHT22;31160;49.500;7.772;2024-01-07T11:05:11;3.70;99.90
13794;DHT22;31160;49.500;7.772;2024-01-07T11:07:46;3.80;99.90
13794;DHT22;31160;49.500;7.772;2024-01-07T11:10:19;3.90;99.90
13794;DHT22;31160;49.500;7.772;2024-01-07T11:12:54;3.50;99.90
13794;DHT22;31160;49.500;7.772;2024-01-07T11:18:21;3.50;99.90
13794;DHT22;31160;49.500;7.772;2024-01-07T11:20:49;3.60;99.90
13794;DHT22;31160;49.500;7.772;2024-01-07T11:23:35;3.60;99.90
13794;DHT22;31160;49.500;7.772;2024-01-07T11:26:06;3.60;99.90
13794;DHT22;31160;49.500;7.772;2024-01-07T11:31:14;3.60;99.90
13794;DHT22;31160;49.500;7.772;2024-01-07T11:33:43;3.50;99.90
13794;DHT22;31160;49.500;7.772;2024-01-07T11:36:15;3.40;99.90
13794;DHT22;31160;49.500;7.772;2024-01-07T11:38:47;3.30;99.90
13794;DHT22;31160;49.500;7.772;2024-01-07T11:41:20;3.20;99.90
13794;DHT22;31160;49.500;7.772;2024-01-07T11:43:54;3.20;99.90
13794;DHT22;31160;49.500;7.772;2024-01-07T11:46:22;3.30;99.90
13794;DHT22;31160;49.500;7.772;2024-01-07T11:48:52;3.10;99.90
13794;DHT22;31160;49.500;7.772;2024-01-07T11:51:19;3.20;99.90
13794;DHT22;31160;49.500;7.772;2024-01-07T11:53:47;3.30;99.90
13794;DHT22;31160;49.500;7.772;2024-01-07T11:56:14;3.30;99.90
13794;DHT22;31160;49.500;7.772;2024-01-07T11:58:41;3.50;99.90
13794;DHT22;31160;49.500;7.772;2024-01-07T12:01:08;3.50;99.90
13794;DHT22;31160;49.500;7.772;2024-01-07T12:03:35;3.50;99.90
13794;DHT22;31160;49.500;7.772;2024-01-07T12:06:03;3.80;99.90
13794;DHT22;31160;49.500;7.772;2024-01-07T12:08:31;3.60;99.90
13794;DHT22;31160;49.500;7.772;2024-01-07T12:10:59;3.60;99.90
13794;DHT22;31160;49.500;7.772;2024-01-07T12:13:26;3.60;99.90
13794;DHT22;31160;49.500;7.772;2024-01-07T12:15:52;3.50;99.90
13794;DHT22;31160;49.500;7.772;2024-01-07T12:18:21;3.60;99.90
13794;DHT22;31160;49.500;7.772;2024-01-07T12:20:58;3.70;99.90
13794;DHT22;31160;49.500;7.772;2024-01-07T12:23:28;3.50;99.90
13794;DHT22;31160;49.500;7.772;2024-01-07T12:25:55;3.40;99.90
13794;DHT22;31160;49.500;7.772;2024-01-07T12:28:33;3.30;99.90
13794;DHT22;31160;49.500;7.772;2024-01-07T12:30:59;3.30;99.90
13794;DHT22;31160;49.500;7.772;2024-01-07T12:33:28;3.50;99.90
13794;DHT22;31160;49.500;7.772;2024-01-07T12:35:57;3.50;99.90
13794;DHT22;31160;49.500;7.772;2024-01-07T12:38:24;3.40;99.90
13794;DHT22;31160;49.500;7.772;2024-01-07T12:40:52;3.40;99.90
13794;DHT22;31160;49.500;7.772;2024-01-07T12:43:19;3.40;99.90
13794;DHT22;31160;49.500;7.772;2024-01-07T12:45:50;3.50;99.90
13794;DHT22;31160;49.500;7.772;2024-01-07T12:48:17;3.70;99.90
13794;DHT22;31160;49.500;7.772;2024-01-07T12:50:43;3.60;99.90
13794;DHT22;31160;49.500;7.772;2024-01-07T12:53:10;3.80;99.90
13794;DHT22;31160;49.500;7.772;2024-01-07T12:55:37;3.90;99.90
13794;DHT22;31160;49.500;7.772;2024-01-07T12:58:04;3.90;99.90
13794;DHT22;31160;49.500;7.772;2024-01-07T13:00:30;3.80;99.90
13794;DHT22;31160;49.500;7.772;2024-01-07T13:02:57;3.70;99.90
13794;DHT22;31160;49.500;7.772;2024-01-07T13:05:27;3.70;99.90
13794;DHT22;31160;49.500;7.772;2024-01-07T13:07:54;3.80;99.90
13794;DHT22;31160;49.500;7.772;2024-01-07T13:10:21;3.80;99.90
13794;DHT22;31160;49.500;7.772;2024-01-07T13:12:48;3.80;99.90
13794;DHT22;31160;49.500;7.772;2024-01-07T13:15:21;4.00;99.90
13794;DHT22;31160;49.500;7.772;2024-01-07T13:17:49;3.80;99.90
13794;DHT22;31160;49.500;7.772;2024-01-07T13:20:16;3.50;99.90
13794;DHT22;31160;49.500;7.772;2024-01-07T13:22:46;3.30;99.90
13794;DHT22;31160;49.500;7.772;2024-01-07T13:25:13;3.40;99.90
13794;DHT22;31160;49.500;7.772;2024-01-07T13:27:40;3.50;99.90
13794;DHT22;31160;49.500;7.772;2024-01-07T13:30:09;3.40;99.90
13794;DHT22;31160;49.500;7.772;2024-01-07T13:32:36;3.40;99.90
13794;DHT22;31160;49.500;7.772;2024-01-07T13:35:05;3.30;99.90
13794;DHT22;31160;49.500;7.772;2024-01-07T13:37:32;3.30;99.90
13794;DHT22;31160;49.500;7.772;2024-01-07T13:39:59;3.20;99.90
13794;DHT22;31160;49.500;7.772;2024-01-07T13:42:27;3.10;99.90
13794;DHT22;31160;49.500;7.772;2024-01-07T13:44:54;2.90;99.90
13794;DHT22;31160;49.500;7.772;2024-01-07T13:47:21;2.70;99.90
13794;DHT22;31160;49.500;7.772;2024-01-07T13:49:48;2.70;99.90
13794;DHT22;31160;49.500;7.772;2024-01-07T13:52:15;2.90;99.90
13794;DHT22;31160;49.500;7.772;2024-01-07T13:54:42;2.80;99.90
13794;DHT22;31160;49.500;7.772;2024-01-07T13:57:09;2.80;99.90
13794;DHT22;31160;49.500;7.772;2024-01-07T13:59:36;2.80;99.90
13794;DHT22;31160;49.500;7.772;2024-01-07T14:02:02;2.80;99.90
13794;DHT22;31160;49.500;7.772;2024-01-07T14:04:31;2.90;99.90
13794;DHT22;31160;49.500;7.772;2024-01-07T14:06:58;2.80;99.90
13794;DHT22;31160;49.500;7.772;2024-01-07T14:09:25;2.90;99.90
13794;DHT22;31160;49.500;7.772;2024-01-07T14:11:52;3.00;99.90
13794;DHT22;31160;49.500;7.772;2024-01-07T14:14:19;3.10;99.90
13794;DHT22;31160;49.500;7.772;2024-01-07T14:16:45;2.90;99.90
13794;DHT22;31160;49.500;7.772;2024-01-07T14:19:12;2.90;99.90
13794;DHT22;31160;49.500;7.772;2024-01-07T14:21:41;2.90;99.90
13794;DHT22;31160;49.500;7.772;2024-01-07T14:24:08;2.80;99.90
13794;DHT22;31160;49.500;7.772;2024-01-07T14:26:35;2.80;99.90
13794;DHT22;31160;49.500;7.772;2024-01-07T14:29:01;2.60;99.90
13794;DHT22;31160;49.500;7.772;2024-01-07T14:31:42;2.50;99.90
13794;DHT22;31160;49.500;7.772;2024-01-07T14:34:09;2.50;99.90
13794;DHT22;31160;49.500;7.772;2024-01-07T14:36:40;2.60;99.90
13794;DHT22;31160;49.500;7.772;2024-01-07T14:39:08;2.50;99.90
13794;DHT22;31160;49.500;7.772;2024-01-07T14:41:36;2.30;99.90
13794;DHT22;31160;49.500;7.772;2024-01-07T14:44:03;2.30;99.90
13794;DHT22;31160;49.500;7.772;2024-01-07T14:46:36;2.30;99.90
13794;DHT22;31160;49.500;7.772;2024-01-07T14:49:03;2.30;99.90
13794;DHT22;31160;49.500;7.772;2024-01-07T14:51:31;2.20;99.90
13794;DHT22;31160;49.500;7.772;2024-01-07T14:53:58;2.20;99.90
13794;DHT22;31160;49.500;7.772;2024-01-07T14:56:26;2.00;99.90
13794;DHT22;31160;49.500;7.772;2024-01-07T14:58:53;2.20;99.90
13794;DHT22;31160;49.500;7.772;2024-01-07T15:01:19;2.10;99.90
13794;DHT22;31160;49.500;7.772;2024-01-07T15:03:46;1.90;99.90
13794;DHT22;31160;49.500;7.772;2024-01-07T15:06:13;2.00;99.90
13794;DHT22;31160;49.500;7.772;2024-01-07T15:08:42;2.00;99.90
13794;DHT22;31160;49.500;7.772;2024-01-07T15:11:13;2.00;99.90
13794;DHT22;31160;49.500;7.772;2024-01-07T15:13:41;1.90;99.90
13794;DHT22;31160;49.500;7.772;2024-01-07T15:16:10;1.80;99.90
13794;DHT22;31160;49.500;7.772;2024-01-07T15:18:36;1.90;99.90
13794;DHT22;31160;49.500;7.772;2024-01-07T15:21:04;2.00;99.90
13794;DHT22;31160;49.500;7.772;2024-01-07T15:23:32;2.00;99.90
13794;DHT22;31160;49.500;7.772;2024-01-07T15:25:58;1.80;99.90
13794;DHT22;31160;49.500;7.772;2024-01-07T15:28:25;1.80;99.90
13794;DHT22;31160;49.500;7.772;2024-01-07T15:30:52;1.80;99.90
13794;DHT22;31160;49.500;7.772;2024-01-07T15:33:19;1.70;99.90
13794;DHT22;31160;49.500;7.772;2024-01-07T15:35:46;1.60;99.90
13794;DHT22;31160;49.500;7.772;2024-01-07T15:38:13;1.60;99.90
13794;DHT22;31160;49.500;7.772;2024-01-07T15:40:40;1.70;99.90
13794;DHT22;31160;49.500;7.772;2024-01-07T15:43:06;1.60;99.90
13794;DHT22;31160;49.500;7.772;2024-01-07T15:45:33;1.60;99.90
13794;DHT22;31160;49.500;7.772;2024-01-07T15:48:01;1.40;99.90
13794;DHT22;31160;49.500;7.772;2024-01-07T15:50:27;1.60;99.90
13794;DHT22;31160;49.500;7.772;2024-01-07T15:52:55;1.60;99.90